createdAt,value
2019-03-23T00:00:54.348Z,72.00
2019-03-23T00:03:22.305Z,71.10
2019-03-23T00:05:50.265Z,71.90
2019-03-23T00:08:18.198Z,71.30
2019-03-23T00:10:46.165Z,70.90
2019-03-23T00:13:14.048Z,70.40
2019-03-23T00:15:42.031Z,70.10
2019-03-23T00:18:10.012Z,69.90
2019-03-23T00:20:37.975Z,69.90
2019-03-23T00:23:06.280Z,69.90
2019-03-23T00:25:34.275Z,70.50
2019-03-23T00:28:02.552Z,70.10
2019-03-23T00:30:30.491Z,69.20
2019-03-23T00:32:58.866Z,69.60
2019-03-23T00:35:27.025Z,70.00
2019-03-23T00:37:55.024Z,70.00
2019-03-23T00:40:23.009Z,70.20
2019-03-23T00:42:51.016Z,71.10
2019-03-23T00:45:18.976Z,70.70
2019-03-23T00:47:47.354Z,71.20
2019-03-23T00:50:15.325Z,71.50
2019-03-23T00:52:43.308Z,71.30
2019-03-23T00:55:11.226Z,71.80
2019-03-23T00:57:39.109Z,72.00
2019-03-23T01:00:07.656Z,72.50
2019-03-23T01:02:35.617Z,73.80
2019-03-23T01:05:04.157Z,74.90
2019-03-23T01:07:32.103Z,75.40
2019-03-23T01:10:00.043Z,75.80
2019-03-23T01:12:27.984Z,76.70
2019-03-23T01:14:55.856Z,76.90
2019-03-23T01:17:23.808Z,77.50
2019-03-23T01:19:51.790Z,77.60
2019-03-23T01:22:19.708Z,78.20
2019-03-23T01:24:47.644Z,78.30
2019-03-23T01:27:15.504Z,77.80
2019-03-23T01:29:43.872Z,77.30
2019-03-23T01:32:11.851Z,76.90
2019-03-23T01:34:39.786Z,76.50
2019-03-23T01:37:07.652Z,75.80
2019-03-23T01:39:35.611Z,75.30
2019-03-23T01:42:03.463Z,75.70
2019-03-23T01:44:31.430Z,75.20
2019-03-23T01:46:59.374Z,74.20
2019-03-23T01:49:27.243Z,74.60
2019-03-23T01:51:55.153Z,74.80
2019-03-23T01:54:23.012Z,75.50
2019-03-23T01:56:50.838Z,75.30
2019-03-23T01:59:18.694Z,75.40
2019-03-23T02:01:46.570Z,74.90
2019-03-23T02:04:14.525Z,75.60
2019-03-23T02:06:42.389Z,76.90
2019-03-23T02:09:10.358Z,76.60
2019-03-23T02:11:38.241Z,76.70
2019-03-23T02:14:06.119Z,77.40
2019-03-23T02:16:34.081Z,77.10
2019-03-23T02:19:02.021Z,77.60
2019-03-23T02:21:30.013Z,78.40
2019-03-23T02:23:58.563Z,79.00
2019-03-23T02:26:26.500Z,78.10
2019-03-23T02:28:54.342Z,78.00
2019-03-23T02:31:22.331Z,78.70
2019-03-23T02:33:50.292Z,78.70
2019-03-23T02:36:18.238Z,79.20
2019-03-23T02:38:46.234Z,80.10
2019-03-23T02:41:14.231Z,78.70
2019-03-23T02:43:42.143Z,79.00
2019-03-23T02:46:10.031Z,79.20
2019-03-23T02:48:37.957Z,79.50
2019-03-23T02:51:05.957Z,79.10
2019-03-23T02:53:33.888Z,79.10
2019-03-23T02:56:01.847Z,80.00
2019-03-23T02:58:29.771Z,79.20
2019-03-23T03:00:57.654Z,78.70
2019-03-23T03:03:25.488Z,77.60
2019-03-23T03:05:53.456Z,76.60
2019-03-23T03:08:21.394Z,75.80
2019-03-23T03:10:49.246Z,77.20
2019-03-23T03:13:17.214Z,78.10
2019-03-23T03:15:45.159Z,79.40
2019-03-23T03:18:13.170Z,80.40
2019-03-23T03:20:41.164Z,80.00
2019-03-23T03:23:09.113Z,79.60
2019-03-23T03:25:37.122Z,80.00
2019-03-23T03:28:05.269Z,80.50
2019-03-23T03:30:33.224Z,80.70
2019-03-23T03:33:01.181Z,80.50
2019-03-23T03:35:29.142Z,81.30
2019-03-23T03:37:57.438Z,81.40
2019-03-23T03:40:25.535Z,80.90
2019-03-23T03:42:53.437Z,80.40
2019-03-23T03:45:23.577Z,78.80
2019-03-23T03:47:51.437Z,79.30
2019-03-23T03:50:19.361Z,79.30
2019-03-23T03:52:47.331Z,79.00
2019-03-23T03:55:15.282Z,78.90
2019-03-23T03:57:43.223Z,78.60
2019-03-23T04:00:11.380Z,79.60
2019-03-23T04:02:39.447Z,78.80
2019-03-23T04:05:07.596Z,78.40
2019-03-23T04:07:35.517Z,77.90
2019-03-23T04:10:04.397Z,76.70
2019-03-23T04:12:32.392Z,76.20
2019-03-23T04:15:00.381Z,76.60
2019-03-23T04:17:28.513Z,76.90
2019-03-23T04:19:56.505Z,77.50
2019-03-23T04:22:24.469Z,78.00
2019-03-23T04:24:52.408Z,77.70
2019-03-23T04:27:20.372Z,77.40
2019-03-23T04:29:48.289Z,77.60
2019-03-23T04:32:16.288Z,77.40
2019-03-23T04:34:44.247Z,77.40
2019-03-23T04:37:12.069Z,78.60
2019-03-23T04:39:40.054Z,79.10
2019-03-23T04:42:08.016Z,79.70
2019-03-23T04:44:35.843Z,79.60
2019-03-23T04:47:03.782Z,79.20
2019-03-23T04:49:31.632Z,79.10
2019-03-23T04:51:59.766Z,80.90
2019-03-23T04:54:27.610Z,80.60
2019-03-23T04:56:55.456Z,80.90
2019-03-23T04:59:23.448Z,81.60
2019-03-23T05:01:51.402Z,81.50
2019-03-23T05:04:19.370Z,82.50
2019-03-23T05:06:47.339Z,83.50
2019-03-23T05:09:15.336Z,83.30
2019-03-23T05:11:43.297Z,83.70
2019-03-23T05:14:11.301Z,82.40
2019-03-23T05:16:39.226Z,81.90
2019-03-23T05:19:07.190Z,81.80
2019-03-23T05:21:35.033Z,81.30
2019-03-23T05:24:02.994Z,80.30
2019-03-23T05:26:30.872Z,80.40
2019-03-23T05:28:58.838Z,79.50
2019-03-23T05:31:26.798Z,79.70
2019-03-23T05:33:54.742Z,80.80
2019-03-23T05:36:22.692Z,80.00
2019-03-23T05:38:50.608Z,78.30
2019-03-23T05:41:18.507Z,77.60
2019-03-23T05:43:46.408Z,77.50
2019-03-23T05:46:14.293Z,76.70
2019-03-23T05:48:42.252Z,76.10
2019-03-23T05:51:10.210Z,75.80
2019-03-23T05:53:38.142Z,76.70
2019-03-23T05:56:06.125Z,77.60
2019-03-23T05:58:33.999Z,78.30
2019-03-23T06:01:01.863Z,79.90
2019-03-23T06:03:29.724Z,79.40
2019-03-23T06:05:57.586Z,78.40
2019-03-23T06:08:25.545Z,78.50
2019-03-23T06:10:53.783Z,78.70
2019-03-23T06:13:21.819Z,78.80
2019-03-23T06:15:49.798Z,78.50
2019-03-23T06:18:17.744Z,77.80
2019-03-23T06:20:45.713Z,77.70
2019-03-23T06:23:13.564Z,77.60
2019-03-23T06:25:41.549Z,78.20
2019-03-23T06:28:09.495Z,79.10
2019-03-23T06:30:37.397Z,78.70
2019-03-23T06:33:05.359Z,78.50
2019-03-23T06:35:33.321Z,77.50
2019-03-23T06:38:01.310Z,78.40
2019-03-23T06:40:29.639Z,77.50
2019-03-23T06:42:59.997Z,76.10
2019-03-23T06:45:27.321Z,76.50
2019-03-23T06:47:55.605Z,77.10
2019-03-23T06:50:23.580Z,76.50
2019-03-23T06:52:51.644Z,76.40
2019-03-23T06:55:19.609Z,76.00
2019-03-23T06:57:47.824Z,76.60
2019-03-23T07:00:15.817Z,77.00
2019-03-23T07:02:43.803Z,76.50
2019-03-23T07:05:12.689Z,76.20
2019-03-23T07:07:40.846Z,75.80
2019-03-23T07:10:09.588Z,74.90
2019-03-23T07:12:37.580Z,76.10
2019-03-23T07:15:06.854Z,76.10
2019-03-23T07:17:34.814Z,76.30
2019-03-23T07:20:02.996Z,76.40
2019-03-23T07:22:30.844Z,76.10
2019-03-23T07:24:58.707Z,75.80
2019-03-23T07:27:26.712Z,75.70
2019-03-23T07:29:54.709Z,75.50
2019-03-23T07:32:22.605Z,75.60
2019-03-23T07:34:50.517Z,75.90
2019-03-23T07:37:18.460Z,75.00
2019-03-23T07:39:46.441Z,75.50
2019-03-23T07:42:14.427Z,75.00
2019-03-23T07:44:42.265Z,73.90
2019-03-23T07:47:10.196Z,71.80
2019-03-23T07:49:38.173Z,70.80
2019-03-23T07:52:06.193Z,70.50
2019-03-23T07:54:34.057Z,70.40
2019-03-23T07:57:01.997Z,70.30
2019-03-23T07:59:29.966Z,69.80
2019-03-23T08:01:57.874Z,70.00
2019-03-23T08:04:25.847Z,69.40
2019-03-23T08:06:53.960Z,68.90
2019-03-23T08:09:23.563Z,68.00
2019-03-23T08:11:51.640Z,67.80
2019-03-23T08:14:19.916Z,68.30
2019-03-23T08:16:47.881Z,68.00
2019-03-23T08:19:15.947Z,68.00
2019-03-23T08:21:43.902Z,67.80
2019-03-23T08:24:11.876Z,67.50
2019-03-23T08:26:39.809Z,68.00
2019-03-23T08:29:07.677Z,67.30
2019-03-23T08:31:36.093Z,66.70
2019-03-23T08:34:04.083Z,67.00
2019-03-23T08:36:32.031Z,66.40
2019-03-23T08:39:04.873Z,64.50
2019-03-23T08:41:32.837Z,64.30
2019-03-23T08:44:00.701Z,64.00
2019-03-23T08:46:28.719Z,65.10
2019-03-23T08:48:56.691Z,65.20
2019-03-23T08:51:24.699Z,64.30
2019-03-23T08:53:52.654Z,63.50
2019-03-23T08:56:20.841Z,63.50
2019-03-23T08:58:47.454Z,63.20
2019-03-23T09:01:15.347Z,62.70
2019-03-23T09:03:52.039Z,61.80
2019-03-23T09:06:13.075Z,62.00
2019-03-23T09:08:41.041Z,61.30
2019-03-23T09:11:20.051Z,61.60
2019-03-23T09:13:40.786Z,61.20
2019-03-23T09:16:08.898Z,60.70
2019-03-23T09:18:36.860Z,60.70
2019-03-23T09:21:04.846Z,60.00
2019-03-23T09:23:33.201Z,59.60
2019-03-23T09:26:01.135Z,59.20
2019-03-23T09:28:29.010Z,58.40
2019-03-23T09:30:56.863Z,58.90
2019-03-23T09:33:24.894Z,58.90
2019-03-23T09:35:52.846Z,57.90
2019-03-23T09:38:20.863Z,57.80
2019-03-23T09:40:48.821Z,58.00
2019-03-23T09:43:16.793Z,56.00
2019-03-23T09:45:44.718Z,56.90
2019-03-23T09:48:12.578Z,56.90
2019-03-23T09:50:40.440Z,55.80
2019-03-23T09:53:08.319Z,54.60
2019-03-23T09:55:36.273Z,54.30
2019-03-23T09:58:04.265Z,53.30
2019-03-23T10:00:32.250Z,52.70
2019-03-23T10:03:00.147Z,51.50
2019-03-23T10:05:28.141Z,48.90
2019-03-23T10:07:56.122Z,48.20
2019-03-23T10:10:24.104Z,45.00
2019-03-23T10:12:52.565Z,43.00
2019-03-23T10:15:20.547Z,41.50
2019-03-23T10:17:48.416Z,38.10
2019-03-23T10:20:16.423Z,36.90
2019-03-23T10:22:44.435Z,33.40
2019-03-23T10:25:12.450Z,31.20
2019-03-23T10:27:40.428Z,32.10
2019-03-23T10:30:08.460Z,32.90
2019-03-23T10:32:36.356Z,31.60
2019-03-23T10:35:06.145Z,29.30
2019-03-23T10:37:36.408Z,29.00
2019-03-23T10:40:07.524Z,27.50
2019-03-23T10:42:35.910Z,27.30
2019-03-23T10:45:05.522Z,26.50
2019-03-23T10:47:33.514Z,23.70
2019-03-23T10:50:01.585Z,23.30
2019-03-23T10:52:30.467Z,23.30
2019-03-23T10:54:58.663Z,22.80
2019-03-23T10:57:26.643Z,22.20
2019-03-23T10:59:54.644Z,22.80
2019-03-23T11:02:25.671Z,21.50
2019-03-23T11:04:53.572Z,22.60
2019-03-23T11:07:21.910Z,21.50
2019-03-23T11:09:49.978Z,21.00
2019-03-23T11:12:17.936Z,21.70
2019-03-23T11:14:45.954Z,20.50
2019-03-23T11:17:13.960Z,20.60
2019-03-23T11:19:41.966Z,20.00
2019-03-23T11:22:10.177Z,19.60
2019-03-23T11:24:38.190Z,18.30
2019-03-23T11:27:06.194Z,18.80
2019-03-23T11:29:34.482Z,18.40
2019-03-23T11:32:02.531Z,19.60
2019-03-23T11:34:30.499Z,19.60
2019-03-23T11:36:58.370Z,18.50
2019-03-23T11:39:26.339Z,19.10
2019-03-23T11:41:54.310Z,18.10
2019-03-23T11:44:22.258Z,17.00
2019-03-23T11:46:50.154Z,16.90
2019-03-23T11:49:18.206Z,16.30
2019-03-23T11:51:46.182Z,16.00
2019-03-23T11:54:14.578Z,16.00
2019-03-23T11:56:42.548Z,16.20
2019-03-23T11:59:10.538Z,16.30
2019-03-23T12:01:38.499Z,16.50
2019-03-23T12:04:06.434Z,16.90
2019-03-23T12:06:34.282Z,17.80
2019-03-23T12:09:02.768Z,17.90
2019-03-23T12:11:30.955Z,18.10
2019-03-23T12:13:58.872Z,18.30
2019-03-23T12:16:26.865Z,18.00
2019-03-23T12:18:54.700Z,18.70
2019-03-23T12:21:22.589Z,18.40
2019-03-23T12:23:50.893Z,18.40
2019-03-23T12:26:20.148Z,18.80
2019-03-23T12:28:48.298Z,19.20
2019-03-23T12:31:16.384Z,19.60
2019-03-23T12:33:44.380Z,20.10
2019-03-23T12:36:12.467Z,21.30
2019-03-23T12:38:41.469Z,21.40
2019-03-23T12:41:14.483Z,22.10
2019-03-23T12:43:39.428Z,22.50
2019-03-23T12:46:07.503Z,23.50
2019-03-23T12:48:35.863Z,24.10
2019-03-23T12:51:03.860Z,25.90
2019-03-23T12:53:31.887Z,25.60
2019-03-23T12:56:00.038Z,24.90
2019-03-23T12:58:28.498Z,25.80
2019-03-23T13:00:56.543Z,24.00
2019-03-23T13:03:24.502Z,23.70
2019-03-23T13:05:52.513Z,23.50
2019-03-23T13:08:20.476Z,23.90
2019-03-23T13:10:48.457Z,24.10
2019-03-23T13:13:18.324Z,23.50
2019-03-23T13:15:46.421Z,23.40
2019-03-23T13:18:14.452Z,23.70
2019-03-23T13:20:42.424Z,22.60
2019-03-23T13:23:12.617Z,23.30
2019-03-23T13:25:40.310Z,23.40
2019-03-23T13:28:08.308Z,22.60
2019-03-23T13:30:36.661Z,22.10
2019-03-23T13:33:04.640Z,22.40
2019-03-23T13:35:32.985Z,21.90
2019-03-23T13:38:01.392Z,21.20
2019-03-23T13:40:29.389Z,20.30
2019-03-23T13:42:57.368Z,21.10
2019-03-23T13:45:25.208Z,21.70
2019-03-23T13:47:54.856Z,21.10
2019-03-23T13:50:27.614Z,19.20
2019-03-23T13:52:55.604Z,20.00
2019-03-23T13:55:27.970Z,20.20
2019-03-23T13:57:57.832Z,20.10
2019-03-23T14:00:25.870Z,20.00
2019-03-23T14:02:54.223Z,19.70
2019-03-23T14:05:22.500Z,19.20
2019-03-23T14:07:50.686Z,20.00
2019-03-23T14:10:18.602Z,20.60
2019-03-23T14:12:46.552Z,19.80
2019-03-23T14:15:14.838Z,19.70
2019-03-23T14:17:43.139Z,20.00
2019-03-23T14:20:11.095Z,20.20
2019-03-23T14:22:39.094Z,20.00
2019-03-23T14:25:07.448Z,19.70
2019-03-23T14:27:35.410Z,19.20
2019-03-23T14:30:04.066Z,18.40
2019-03-23T14:32:31.951Z,18.50
2019-03-23T14:35:01.111Z,19.10
2019-03-23T14:37:29.365Z,20.20
2019-03-23T14:39:57.333Z,20.00
2019-03-23T14:42:25.276Z,19.90
2019-03-23T14:44:53.238Z,18.90
2019-03-23T14:47:21.185Z,18.00
2019-03-23T14:49:49.182Z,19.40
2019-03-23T14:52:17.120Z,20.30
2019-03-23T14:54:44.964Z,20.10
2019-03-23T14:57:12.927Z,21.50
2019-03-23T14:59:40.793Z,21.90
2019-03-23T15:02:08.902Z,22.20
2019-03-23T15:04:37.152Z,23.00
2019-03-23T15:07:05.254Z,23.80
2019-03-23T15:09:33.583Z,23.80
2019-03-23T15:12:02.002Z,23.70
2019-03-23T15:14:29.938Z,24.20
2019-03-23T15:16:58.179Z,23.40
2019-03-23T15:19:26.026Z,23.50
2019-03-23T15:21:54.031Z,22.10
2019-03-23T15:24:21.960Z,22.50
2019-03-23T15:26:49.879Z,22.70
2019-03-23T15:29:17.845Z,22.80
2019-03-23T15:31:45.748Z,23.70
2019-03-23T15:34:14.048Z,24.00
2019-03-23T15:36:42.292Z,24.50
2019-03-23T15:39:10.271Z,25.00
2019-03-23T15:41:38.242Z,25.90
2019-03-23T15:44:06.279Z,25.90
2019-03-23T15:46:34.268Z,26.30
2019-03-23T15:49:02.247Z,26.70
2019-03-23T15:51:30.135Z,26.90
2019-03-23T15:53:58.113Z,27.70
2019-03-23T15:56:26.116Z,28.30
2019-03-23T15:58:54.122Z,29.50
2019-03-23T16:01:23.297Z,29.70
2019-03-23T16:03:51.510Z,30.20
2019-03-23T16:06:19.480Z,30.60
2019-03-23T16:08:47.464Z,31.10
2019-03-23T16:11:15.464Z,32.00
2019-03-23T16:13:43.489Z,32.00
2019-03-23T16:16:11.444Z,33.20
2019-03-23T16:18:39.385Z,32.70
2019-03-23T16:21:07.271Z,32.90
2019-03-23T16:23:35.274Z,33.30
2019-03-23T16:26:03.343Z,32.90
2019-03-23T16:28:31.353Z,32.40
2019-03-23T16:30:59.422Z,33.20
2019-03-23T16:33:27.457Z,33.60
2019-03-23T16:35:55.444Z,34.20
2019-03-23T16:38:23.390Z,34.90
2019-03-23T16:40:51.616Z,36.40
2019-03-23T16:43:19.555Z,35.90
2019-03-23T16:45:47.537Z,36.30
2019-03-23T16:48:15.483Z,35.80
2019-03-23T16:50:43.484Z,35.90
2019-03-23T16:53:11.424Z,37.20
2019-03-23T16:55:39.676Z,37.40
2019-03-23T16:58:15.733Z,36.80
2019-03-23T17:00:38.685Z,37.80
2019-03-23T17:03:06.759Z,37.40
2019-03-23T17:05:36.415Z,36.40
2019-03-23T17:08:04.800Z,36.30
2019-03-23T17:10:32.985Z,37.00
2019-03-23T17:13:00.993Z,37.00
2019-03-23T17:15:28.983Z,36.90
2019-03-23T17:17:56.973Z,37.30
2019-03-23T17:20:24.960Z,37.10
2019-03-23T17:22:53.039Z,37.10
2019-03-23T17:25:21.045Z,37.60
2019-03-23T17:27:48.935Z,37.20
2019-03-23T17:30:16.949Z,37.20
2019-03-23T17:32:44.913Z,37.20
2019-03-23T17:35:12.934Z,38.00
2019-03-23T17:37:40.880Z,38.00
2019-03-23T17:40:09.285Z,38.30
2019-03-23T17:42:37.274Z,38.70
2019-03-23T17:45:05.618Z,39.50
2019-03-23T17:47:33.610Z,39.30
2019-03-23T17:50:01.550Z,39.70
2019-03-23T17:52:29.828Z,40.50
2019-03-23T17:54:57.823Z,40.60
2019-03-23T17:57:25.813Z,40.20
2019-03-23T17:59:53.751Z,40.60
2019-03-23T18:02:21.739Z,40.90
2019-03-23T18:04:50.117Z,41.20
2019-03-23T18:07:18.099Z,41.40
2019-03-23T18:09:46.061Z,41.70
2019-03-23T18:12:14.146Z,41.70
2019-03-23T18:14:42.248Z,42.00
2019-03-23T18:17:10.576Z,42.20
2019-03-23T18:19:38.588Z,42.40
2019-03-23T18:22:06.627Z,42.90
2019-03-23T18:24:34.633Z,43.50
2019-03-23T18:27:02.625Z,43.30
2019-03-23T18:29:30.631Z,43.70
2019-03-23T18:31:58.663Z,44.30
2019-03-23T18:34:26.710Z,44.70
2019-03-23T18:36:55.442Z,43.90
2019-03-23T18:39:23.303Z,44.60
2019-03-23T18:41:51.310Z,44.70
2019-03-23T18:44:19.366Z,44.80
2019-03-23T18:46:47.581Z,45.40
2019-03-23T18:49:15.564Z,45.10
2019-03-23T18:51:43.630Z,45.10
2019-03-23T18:54:12.029Z,45.40
2019-03-23T18:56:40.098Z,45.60
2019-03-23T18:59:08.088Z,46.30
2019-03-23T19:01:36.124Z,46.50
2019-03-23T19:04:04.101Z,46.50
2019-03-23T19:06:32.089Z,46.10
2019-03-23T19:09:00.087Z,46.30
2019-03-23T19:11:28.101Z,46.80
2019-03-23T19:13:56.150Z,46.10
2019-03-23T19:16:24.222Z,48.30
2019-03-23T19:18:52.300Z,48.00
2019-03-23T19:21:20.335Z,47.20
2019-03-23T19:23:48.318Z,47.20
2019-03-23T19:26:16.303Z,47.50
2019-03-23T19:28:44.313Z,47.80
2019-03-23T19:31:12.310Z,48.00
2019-03-23T19:33:40.400Z,47.90
2019-03-23T19:36:08.453Z,48.30
2019-03-23T19:38:36.495Z,48.70
2019-03-23T19:41:05.605Z,49.20
2019-03-23T19:43:33.871Z,49.40
2019-03-23T19:46:01.901Z,49.90
2019-03-23T19:48:29.978Z,50.20
2019-03-23T19:50:58.018Z,50.30
2019-03-23T19:53:26.048Z,50.70
2019-03-23T19:55:54.031Z,50.60
2019-03-23T19:58:22.040Z,50.40
2019-03-23T20:00:50.068Z,52.00
2019-03-23T20:03:19.272Z,52.00
2019-03-23T20:05:47.575Z,51.60
2019-03-23T20:08:15.621Z,51.90
2019-03-23T20:10:43.697Z,52.20
2019-03-23T20:13:11.638Z,52.80
2019-03-23T20:15:39.677Z,52.50
2019-03-23T20:18:08.022Z,52.00
2019-03-23T20:20:36.038Z,52.20
2019-03-23T20:23:04.071Z,53.10
2019-03-23T20:25:32.187Z,52.90
2019-03-23T20:28:00.229Z,53.50
2019-03-23T20:30:28.282Z,53.50
2019-03-23T20:32:56.365Z,53.80
2019-03-23T20:35:24.913Z,53.20
2019-03-23T20:37:52.961Z,53.40
2019-03-23T20:40:20.997Z,53.50
2019-03-23T20:42:48.982Z,54.10
2019-03-23T20:45:26.771Z,54.10
2019-03-23T20:47:54.799Z,56.00
2019-03-23T20:50:22.818Z,56.10
2019-03-23T20:52:50.867Z,55.80
2019-03-23T20:55:26.618Z,55.40
2019-03-23T20:57:55.336Z,56.00
2019-03-23T21:00:23.503Z,55.30
2019-03-23T21:02:51.507Z,55.80
2019-03-23T21:05:19.608Z,55.80
2019-03-23T21:07:47.697Z,55.60
2019-03-23T21:10:15.794Z,56.10
2019-03-23T21:12:43.883Z,56.00
2019-03-23T21:15:12.172Z,56.50
2019-03-23T21:17:50.684Z,56.30
2019-03-23T21:20:10.393Z,56.10
2019-03-23T21:22:38.803Z,56.40
2019-03-23T21:25:09.000Z,57.20
2019-03-23T21:27:37.061Z,57.00
2019-03-23T21:30:09.452Z,57.60
2019-03-23T21:32:37.496Z,57.10
2019-03-23T21:35:06.026Z,57.20
2019-03-23T21:37:34.068Z,57.50
2019-03-23T21:40:03.030Z,57.70
2019-03-23T21:42:31.442Z,57.90
2019-03-23T21:45:00.055Z,58.30
2019-03-23T21:47:28.524Z,58.00
2019-03-23T21:49:58.815Z,57.90
2019-03-23T21:52:27.457Z,58.10
2019-03-23T21:54:55.447Z,58.80
2019-03-23T21:57:23.509Z,59.20
2019-03-23T21:59:51.461Z,58.40
2019-03-23T22:02:19.470Z,58.30
2019-03-23T22:04:48.116Z,58.80
2019-03-23T22:07:16.429Z,58.90
2019-03-23T22:09:47.205Z,59.30
2019-03-23T22:12:15.498Z,58.90
2019-03-23T22:14:43.560Z,59.00
2019-03-23T22:17:11.573Z,59.30
2019-03-23T22:19:39.949Z,59.60
2019-03-23T22:22:07.994Z,59.80
2019-03-23T22:24:35.965Z,60.00
2019-03-23T22:27:03.992Z,59.90
2019-03-23T22:29:32.028Z,60.20
2019-03-23T22:31:59.995Z,60.10
2019-03-23T22:34:28.848Z,60.10
2019-03-23T22:36:56.813Z,60.50
2019-03-23T22:39:24.823Z,60.70
2019-03-23T22:41:52.773Z,61.20
2019-03-23T22:44:21.404Z,61.00
2019-03-23T22:46:49.333Z,61.20
2019-03-23T22:49:17.279Z,60.90
2019-03-23T22:51:45.280Z,60.40
2019-03-23T22:54:13.274Z,60.40
2019-03-23T22:56:41.539Z,60.70
2019-03-23T22:59:09.430Z,61.30
2019-03-23T23:01:37.387Z,61.30
2019-03-23T23:04:05.382Z,61.10
2019-03-23T23:06:33.441Z,61.20
2019-03-23T23:09:01.561Z,61.30
2019-03-23T23:11:29.487Z,61.20
2019-03-23T23:13:57.532Z,61.50
2019-03-23T23:16:25.517Z,61.80
2019-03-23T23:18:53.500Z,61.80
2019-03-23T23:21:21.507Z,61.90
2019-03-23T23:23:49.486Z,61.60
2019-03-23T23:26:17.422Z,62.00
2019-03-23T23:28:45.407Z,62.20
2019-03-23T23:31:13.784Z,62.30
2019-03-23T23:33:41.720Z,62.10
2019-03-23T23:36:09.664Z,62.60
2019-03-23T23:38:37.668Z,63.20
2019-03-23T23:41:05.535Z,63.30
2019-03-23T23:43:33.426Z,63.50
2019-03-23T23:46:01.372Z,63.60
2019-03-23T23:48:29.346Z,63.60
2019-03-23T23:50:57.373Z,63.60
2019-03-23T23:53:25.317Z,63.50
2019-03-23T23:55:53.342Z,63.30
2019-03-23T23:58:21.259Z,63.20
